Aeroporto :







RITROVATECI SU...

 
LOGIN :

Iscrizione | Disclaimer

   EN    FR    IT 

 









Sommario :    VFR   VFR Marginale   IFR   IFR Intensivo   IFR Molto Intensivo
Visibilità : 
Base nubi : 
>= 8 km
>= 3000ft
5 / 8 km
1000 / 3000 ft
1500m / 5 km
500 / 1000 ft
800 / 1500m
200 / 500 ft
< 800m
< 200 ft
Simboli :   Temporali  Nebbia  Neve Forte  Precipitazioni Forti  Vento > 20 kt






- Altitudine del aeroporto : 76 ft
- Codice IATA : EGS


BIEG - Egilsstaðir

ULTIMO METAR :
  • 251700Z 01013G23KT 9999 VCSH FEW005 SCT025 OVC040 00/M01 Q0982 R04/720183 RMK WIND GAGNHEIDI 10027KT

METARs OBSOLETI :
  • 251600Z 01012KT 9999 VCSH FEW005 SCT025 OVC040 00/M01 Q0982 R04/720195 RMK WIND GAGNHEIDI 04029KT
  • 251500Z 36015KT 9999 SCT005 BKN025 OVC040 00/M01 Q0983 R04/720195 RMK WIND GAGNHEIDI 06028KT
  • 251400Z 36016KT 9999 SCT025 BKN040 00/M01 Q0983 R04/720195 RMK WIND GAGNHEIDI 06032KT

TAF TAF BIEG
Valido dal 25 a 15 ore il 26 a 15 ore UTC


251317Z 2515/2615 02015KT 9999 FEW015 BKN025 OVC040 TX01/2515Z TNM05/2606Z
PROB40
TEMPO 2515/2522 5000 -SN BKN010
BECMG 2520/2522 20012KT
BECMG 2607/2609 03012KT
TEMPO 2608/2615 3000 SN OVC010
BECMG 2613/2615 22012KT



MetMap, La meteo Aeronautica in un colpo d'occhio ! - Copyright ORBIFLY Dicembre 2007 - Disclaimer

ORBIFLY MET'MAP TEAM :

Programmazione e sviluppo : Alexandra Zaïnal
Concezione : Baudouin d'Aumeries
Aiuto per la programmazione : Marc-Olivier Méhu
Supporto tecnico e logistico : Manuel Goepfert
Aiuto per la traduzione : Arnaldo La Scala

Contatto : metmap@orbifly.com




FONTI E CREDITI :

   NOAA